West Fargo, ND

7:34 AM CDT on July 29, 2015 (GMT -0500)
Charleswood Estates | | Change Station
CLOSE
Current Station
Personal Weather Station
Location: West Fargo, ND
Elevation: 899 ft
Nearby Weather Stations
Active Advisory: Wind Advisory Active Notice: Public Information Statement

Elev 899 ft 46.86 °N, 96.90 °W | Updated 4 minutes ago

Overcast
Overcast
65.7 °F
Feels Like 65.7 °F
N
6.3
Wind Variable Wind from West

Today
High -- | Low -- °F
--% Chance of Precip.
Yesterday
High -- | Low -- °F
Precip. -- in
6:03 AM 9:03 PM
Waxing Gibbous, 95% visible
Pressure 29.76 in
Visibility 10.0 miles
Clouds Overcast 4900 ft
Dew Point 56 °F
Humidity 70%
Rainfall 0.00 in
Snow Depth Not available.
UV 0 out of 12
Pollen 8.20 out of 12
Air Quality Not available.
Flu Activity Not available.
METAR KFAR 291153Z AUTO 25020G25KT 10SM OVC049 18/11 A2977 RMK AO2 PK WND 25034/1120 SLP078 T01830106 10194 20178 53012 TSNO

More Conditions Fewer Conditions

Pressure 29.76 in
Visibility 10.0 miles
Clouds Overcast 4900 ft
Dew Point 56 °F
Humidity 70%
Rainfall 0.00 in
Snow Depth Not available.
UV 0 out of 12
Pollen 8.20 out of 12
Air Quality Not available.
Flu Activity Not available.
METAR KFAR 291153Z AUTO 25020G25KT 10SM OVC049 18/11 A2977 RMK AO2 PK WND 25034/1120 SLP078 T01830106 10194 20178 53012 TSNO

More Conditions Fewer Conditions

10-Day Weather Forecast

×

Almanac

Astronomy

Jul. 29, 2015 Rise Set
Actual Time
Civil Twilight
Nautical Twilight
Astronomical Twilight
Moon
Length of Visible Light
Length of Day
Tomorrow will be .
, % of the Moon is Illuminated

Today's Extremes

State Highs State Lows

Community

WunderPhotos

Upload Photos

1,842,087 photos uploaded!

WunderBlogs® & News

Nearby

Air Quality

  Air Quality AQ Index Pollutant
Not available.

Snow Depth

Station Depth Elevation

Earthquake Activity

City Distance Mag. Time & Date
Minimum magnitude displayed is 2.5.

Coastal Water Temperatures

Place Temperature

Stations

Nearby Weather Stations

Station Location Temp. Windchill Dew Point Humidity Wind Precip. Elev Updated Type
                   
Wind Advisory
Statement as of 4:00 AM CDT on July 29, 2015

... Wind Advisory in effect until 7 PM CDT this evening...

The National Weather Service in Grand Forks has issued a Wind
Advisory... which is in effect until 7 PM CDT this evening.

* Winds... west around 30 mph with gusts up to 50 mph.

* Timing... strong westerly winds will continue today.

Precautionary/preparedness actions...

A Wind Advisory means that winds of 35 mph are expected. Winds
this strong can make driving difficult... especially for high
profile vehicles. Use extra caution.